Time;durP1;ratioP1;P1;durP2;ratioP2;P2;SDS_P1;SDS_P2;PMS_P1;PMS_P2;Temp;Humidity;BMP_temperature;BMP_pressure;BME280_temperature;BME280_humidity;BME280_pressure;Samples;Min_cycle;Max_cycle;Signal;HPM_P1;HPM_P2
2023/11/03 00:01:12;;;;;;;6.22;1.80;;;;;;;5.21;100.00;97611.47;5075660;28;20094;-70
2023/11/03 00:03:56;;;;;;;9.98;2.00;;;;;;;5.15;100.00;97611.69;5079570;28;20047;-70
2023/11/03 00:06:42;;;;;;;5.47;1.77;;;;;;;5.14;100.00;97612.00;5067968;28;20062;-70
2023/11/03 00:09:28;;;;;;;6.85;1.83;;;;;;;5.14;100.00;97610.06;5097339;28;20063;-70
2023/11/03 00:12:13;;;;;;;6.35;1.58;;;;;;;5.09;100.00;97610.22;5074704;28;20138;-70
2023/11/03 00:14:57;;;;;;;5.95;1.85;;;;;;;5.11;100.00;97609.91;5101082;28;20097;-70
2023/11/03 00:17:41;;;;;;;8.77;2.17;;;;;;;5.10;100.00;97613.81;5097496;28;20519;-70
2023/11/03 00:20:25;;;;;;;6.22;1.77;;;;;;;5.05;100.00;97611.22;5099453;28;20184;-70
2023/11/03 00:23:10;;;;;;;10.63;1.85;;;;;;;5.06;100.00;97624.66;5059979;28;20055;-70
2023/11/03 00:25:54;;;;;;;8.15;2.20;;;;;;;5.00;100.00;97617.72;5070376;28;20113;-70
2023/11/03 00:28:39;;;;;;;5.00;1.63;;;;;;;5.00;100.00;97616.91;5086206;28;20042;-70
2023/11/03 00:31:23;;;;;;;6.72;2.65;;;;;;;4.96;100.00;97610.44;5105297;28;20074;-70
2023/11/03 00:34:09;;;;;;;6.00;1.50;;;;;;;4.96;100.00;97602.19;5085500;28;20046;-70
2023/11/03 00:36:53;;;;;;;7.63;1.80;;;;;;;4.93;100.00;97606.38;5095701;28;20039;-70
2023/11/03 00:39:39;;;;;;;7.60;2.08;;;;;;;4.93;100.00;97606.38;5094410;28;20075;-70
2023/11/03 00:42:23;;;;;;;7.97;1.70;;;;;;;4.87;100.00;97607.72;5080455;28;20067;-70
2023/11/03 00:45:07;;;;;;;5.88;1.50;;;;;;;4.87;100.00;97607.72;5081779;28;20093;-70
2023/11/03 00:47:54;;;;;;;8.88;1.70;;;;;;;4.85;100.00;97610.00;5102432;28;20048;-69
2023/11/03 00:50:38;;;;;;;6.30;1.77;;;;;;;4.85;100.00;97607.25;5082162;28;20066;-70
2023/11/03 00:53:23;;;;;;;10.20;2.67;;;;;;;4.81;100.00;97600.78;5083080;28;20035;-70
2023/11/03 00:56:09;;;;;;;9.20;2.17;;;;;;;4.80;100.00;97607.41;5085684;28;20035;-69
2023/11/03 00:58:53;;;;;;;7.00;2.30;;;;;;;4.76;100.00;97609.19;5054882;28;20043;-70
2023/11/03 01:01:38;;;;;;;9.32;2.15;;;;;;;4.74;100.00;97608.72;5069512;28;20047;-70
2023/11/03 01:04:23;;;;;;;6.57;1.92;;;;;;;4.75;100.00;97610.34;5097611;27;20042;-70
2023/11/03 01:07:07;;;;;;;13.88;2.72;;;;;;;4.75;100.00;97610.34;5059772;28;20529;-70
2023/11/03 01:09:51;;;;;;;7.97;2.33;;;;;;;4.78;100.00;97609.69;5085220;28;20115;-70
2023/11/03 01:12:35;;;;;;;8.45;2.00;;;;;;;4.74;100.00;97608.72;5084166;28;20047;-70
2023/11/03 01:15:19;;;;;;;6.97;2.20;;;;;;;4.77;100.00;97595.13;5099680;28;20550;-70
2023/11/03 01:18:05;;;;;;;11.73;2.33;;;;;;;4.74;100.00;97605.97;5100501;28;20039;-70
2023/11/03 01:20:51;;;;;;;5.90;2.30;;;;;;;4.69;100.00;97599.50;5071363;28;20050;-70
2023/11/03 01:23:35;;;;;;;5.88;1.85;;;;;;;4.70;100.00;97603.06;5079182;28;20488;-70
2023/11/03 01:26:24;;;;;;;11.05;2.47;;;;;;;4.65;100.00;97608.72;5086444;28;20520;-70
2023/11/03 01:29:08;;;;;;;8.27;1.95;;;;;;;4.59;100.00;97601.78;5085160;28;20089;-70
2023/11/03 01:31:53;;;;;;;7.80;2.45;;;;;;;4.57;100.00;97599.38;5100470;28;20542;-70
2023/11/03 01:34:37;;;;;;;11.02;2.78;;;;;;;4.60;100.00;97608.91;5082267;28;20059;-70
2023/11/03 01:37:22;;;;;;;6.72;2.00;;;;;;;4.65;100.00;97604.06;5093328;28;20043;-70
2023/11/03 01:40:09;;;;;;;5.47;1.58;;;;;;;4.59;100.00;97616.31;5088491;28;20047;-70
2023/11/03 01:42:53;;;;;;;6.22;2.10;;;;;;;4.56;100.00;97608.72;5064845;28;20067;-70
2023/11/03 01:45:37;;;;;;;6.65;2.00;;;;;;;4.60;100.00;97611.66;5084655;28;20054;-70
2023/11/03 01:48:22;;;;;;;7.25;2.05;;;;;;;4.58;100.00;97606.47;5081148;28;20060;-70
2023/11/03 01:51:07;;;;;;;7.80;2.25;;;;;;;4.61;100.00;97599.53;5064670;28;20116;-70
2023/11/03 01:53:51;;;;;;;6.18;1.98;;;;;;;4.60;100.00;97606.16;5072297;28;20039;-70
2023/11/03 01:56:35;;;;;;;5.57;1.58;;;;;;;4.62;100.00;97606.63;5067905;28;20082;-70
2023/11/03 01:59:19;;;;;;;10.70;2.45;;;;;;;4.59;100.00;97612.78;5084456;28;20081;-70
2023/11/03 02:02:04;;;;;;;6.57;2.17;;;;;;;4.59;100.00;97607.28;5088352;28;20085;-70
2023/11/03 02:04:48;;;;;;;11.10;2.33;;;;;;;4.58;100.00;97614.72;5097077;28;20044;-70
2023/11/03 02:07:33;;;;;;;9.23;2.33;;;;;;;4.61;100.00;97602.28;5092944;28;20047;-70
2023/11/03 02:10:17;;;;;;;9.95;2.22;;;;;;;4.58;100.00;97605.66;5071943;28;20035;-69
2023/11/03 02:13:01;;;;;;;4.85;2.10;;;;;;;4.61;100.00;97600.31;5057561;28;20043;-70
2023/11/03 02:15:45;;;;;;;7.18;1.77;;;;;;;4.57;100.00;97601.28;5031740;28;20521;-70
2023/11/03 02:18:39;;;;;;;9.88;2.05;;;;;;;4.62;100.00;97598.38;5061235;28;20053;-70
2023/11/03 02:21:23;;;;;;;7.40;2.30;;;;;;;4.62;100.00;97601.94;5058110;28;20044;-70
2023/11/03 02:24:08;;;;;;;8.93;1.85;;;;;;;4.56;100.00;97597.75;5057845;28;20091;-70
2023/11/03 02:26:52;;;;;;;6.72;1.80;;;;;;;4.58;100.00;97592.72;5043854;28;20116;-70
2023/11/03 02:29:36;;;;;;;6.80;1.85;;;;;;;4.64;100.00;97588.66;5044982;28;20048;-70
2023/11/03 02:32:20;;;;;;;6.97;1.63;;;;;;;4.60;100.00;97587.72;5057644;28;20099;-70
2023/11/03 02:35:04;;;;;;;7.88;1.83;;;;;;;4.57;100.00;97587.53;5057798;28;20048;-70
2023/11/03 02:37:48;;;;;;;11.18;1.77;;;;;;;4.52;100.00;97585.00;5045684;28;20039;-70
2023/11/03 02:40:32;;;;;;;6.43;2.20;;;;;;;4.53;100.00;97576.41;5057231;28;20032;-70
2023/11/03 02:43:16;;;;;;;5.25;1.63;;;;;;;4.53;100.00;97570.91;5043136;28;20381;-70
2023/11/03 02:46:00;;;;;;;4.68;1.60;;;;;;;4.52;100.00;97572.06;5032202;28;20396;-70
2023/11/03 02:48:45;;;;;;;11.68;1.70;;;;;;;4.47;100.00;97573.03;5057421;28;20059;-69
2023/11/03 02:51:39;;;;;;;9.57;1.95;;;;;;;4.48;100.00;97562.81;5057519;28;20044;-70
2023/11/03 02:54:23;;;;;;;5.55;1.60;;;;;;;4.50;100.00;97563.31;5044906;28;20090;-70
2023/11/03 02:57:07;;;;;;;7.28;2.00;;;;;;;4.52;100.00;97555.56;5043245;28;20044;-70
2023/11/03 02:59:51;;;;;;;8.15;1.88;;;;;;;4.44;100.00;97554.44;5057168;28;20075;-70
2023/11/03 03:02:35;;;;;;;7.10;2.00;;;;;;;4.43;100.00;97561.06;5029123;28;20040;-70
2023/11/03 03:05:20;;;;;;;8.32;2.25;;;;;;;4.43;100.00;97554.75;5041993;28;20047;-70
2023/11/03 03:08:04;;;;;;;9.10;1.80;;;;;;;4.34;100.00;97556.72;5057062;28;20106;-70
2023/11/03 03:10:48;;;;;;;5.65;2.13;;;;;;;4.34;100.00;97543.78;5045663;28;20039;-70
2023/11/03 03:13:32;;;;;;;6.20;2.25;;;;;;;4.33;100.00;97541.38;5085612;28;20096;-69
2023/11/03 03:16:17;;;;;;;8.57;2.67;;;;;;;4.32;100.00;97537.81;5066893;28;20124;-70
2023/11/03 03:19:01;;;;;;;8.63;2.50;;;;;;;4.40;100.00;97523.25;5091567;28;20094;-70
2023/11/03 03:21:45;;;;;;;7.95;2.28;;;;;;;4.34;100.00;97527.28;5062936;28;20082;-70
2023/11/03 03:24:29;;;;;;;7.35;1.88;;;;;;;4.34;100.00;97526.50;5095608;28;20115;-70
2023/11/03 03:27:13;;;;;;;5.63;1.65;;;;;;;4.32;100.00;97520.50;5077607;28;20385;-70
2023/11/03 03:29:57;;;;;;;8.27;2.08;;;;;;;4.31;100.00;97519.69;5077129;28;20549;-70
2023/11/03 03:32:41;;;;;;;8.68;2.40;;;;;;;4.30;100.00;97517.28;5061540;28;20071;-70
2023/11/03 03:35:25;;;;;;;7.45;1.92;;;;;;;4.31;100.00;97505.16;5068317;28;20100;-70
2023/11/03 03:38:09;;;;;;;8.15;1.80;;;;;;;4.30;100.00;97503.56;5068068;28;20067;-70
2023/11/03 03:40:53;;;;;;;8.85;2.45;;;;;;;4.31;100.00;97496.91;5055084;28;20454;-70
2023/11/03 03:43:37;;;;;;;11.55;2.10;;;;;;;4.34;100.00;97493.53;5065121;28;20515;-70
2023/11/03 03:46:21;;;;;;;6.75;2.00;;;;;;;4.35;100.00;97497.91;5098621;28;20043;-70
2023/11/03 03:49:06;;;;;;;7.78;2.05;;;;;;;4.31;100.00;97497.72;5084853;28;20038;-69
2023/11/03 03:51:50;;;;;;;7.00;2.00;;;;;;;4.25;100.00;97494.34;5080520;28;20109;-70
2023/11/03 03:54:34;;;;;;;6.32;1.95;;;;;;;4.27;100.00;97504.22;5082409;28;20065;-70
2023/11/03 03:57:18;;;;;;;9.32;2.72;;;;;;;4.25;100.00;97491.59;5076575;28;20100;-70
2023/11/03 04:00:03;;;;;;;8.50;2.85;;;;;;;4.24;100.00;97489.19;5094816;28;20043;-70
2023/11/03 04:02:47;;;;;;;8.18;2.78;;;;;;;4.19;100.00;97487.41;5063335;28;20101;-70
2023/11/03 04:05:32;;;;;;;7.60;2.60;;;;;;;4.22;100.00;97486.75;5082135;28;20047;-70
2023/11/03 04:08:16;;;;;;;7.53;2.65;;;;;;;4.19;100.00;97483.88;5078462;28;20046;-70
2023/11/03 04:11:00;;;;;;;9.02;2.80;;;;;;;4.20;100.00;97490.97;5064142;28;20113;-70
2023/11/03 04:13:46;;;;;;;7.60;3.00;;;;;;;4.24;100.00;97495.47;5057532;28;20048;-70
2023/11/03 04:16:36;;;;;;;7.55;3.08;;;;;;;4.17;100.00;97497.09;5084710;28;20439;-70
2023/11/03 04:19:20;;;;;;;11.52;3.85;;;;;;;4.17;100.00;97484.16;5079068;28;20400;-70
2023/11/03 04:22:04;;;;;;;12.20;3.97;;;;;;;4.19;100.00;97484.66;5076207;28;20566;-70
2023/11/03 04:24:48;;;;;;;8.82;4.13;;;;;;;4.18;100.00;97488.56;5062109;28;20043;-70
2023/11/03 04:27:32;;;;;;;6.80;3.47;;;;;;;4.17;100.00;97494.34;5047794;28;20054;-70
2023/11/03 04:30:16;;;;;;;7.50;3.47;;;;;;;4.19;100.00;97481.13;5069101;28;20070;-70
2023/11/03 04:33:00;;;;;;;11.48;3.70;;;;;;;4.14;100.00;97476.59;5061874;28;20422;-70
2023/11/03 04:35:44;;;;;;;11.77;3.63;;;;;;;4.15;100.00;97482.88;5078907;28;20079;-70
2023/11/03 04:38:29;;;;;;;5.03;3.65;;;;;;;4.17;100.00;97481.44;5068580;28;20075;-70
2023/11/03 04:41:13;;;;;;;14.05;4.20;;;;;;;4.14;100.00;97490.31;5076189;28;20097;-70
2023/11/03 04:43:57;;;;;;;5.88;2.92;;;;;;;4.15;100.00;97489.22;5061864;28;20036;-70
2023/11/03 04:46:41;;;;;;;8.43;3.20;;;;;;;4.16;100.00;97493.56;5089045;28;20034;-70
2023/11/03 04:49:26;;;;;;;9.77;3.20;;;;;;;4.15;100.00;97502.09;5052810;28;20039;-70
2023/11/03 04:52:10;;;;;;;7.05;3.00;;;;;;;4.16;100.00;97501.00;5064424;28;20058;-70
2023/11/03 04:54:54;;;;;;;10.13;3.22;;;;;;;4.18;100.00;97488.56;5075123;28;20052;-70
2023/11/03 04:57:39;;;;;;;8.10;2.85;;;;;;;4.21;100.00;97490.66;5061641;28;20039;-70
2023/11/03 05:00:23;;;;;;;8.20;2.45;;;;;;;4.23;100.00;97491.13;5063961;28;20067;-70
2023/11/03 05:03:07;;;;;;;8.23;2.60;;;;;;;4.29;100.00;97496.44;5076826;28;20090;-70
2023/11/03 05:05:52;;;;;;;10.65;2.83;;;;;;;4.29;100.00;97489.03;5075908;28;20105;-70
2023/11/03 05:08:36;;;;;;;8.35;2.65;;;;;;;4.33;100.00;97489.97;5053126;28;20063;-70
2023/11/03 05:11:21;;;;;;;6.07;2.20;;;;;;;4.38;100.00;97481.56;5070363;28;20130;-70
2023/11/03 05:14:05;;;;;;;7.88;2.20;;;;;;;4.44;100.00;97479.44;5079461;28;20404;-70
2023/11/03 05:16:49;;;;;;;7.25;1.90;;;;;;;4.46;100.00;97482.69;5050944;28;20046;-70
2023/11/03 05:19:35;;;;;;;10.23;2.33;;;;;;;4.46;100.00;97477.19;5080427;28;20047;-70
2023/11/03 05:22:20;;;;;;;7.38;2.10;;;;;;;4.48;100.00;97474.88;5079166;28;20040;-70
2023/11/03 05:25:06;;;;;;;10.48;2.42;;;;;;;4.52;100.00;97475.88;5075620;28;20105;-70
2023/11/03 05:27:50;;;;;;;5.63;2.13;;;;;;;4.52;100.00;97481.34;5069899;28;20388;-70
2023/11/03 05:30:34;;;;;;;6.47;1.98;;;;;;;4.55;100.00;97480.69;5070975;28;20047;-70
2023/11/03 05:33:18;;;;;;;9.75;2.65;;;;;;;4.55;100.00;97477.94;5065020;28;20491;-70
2023/11/03 05:36:02;;;;;;;6.05;1.90;;;;;;;4.57;100.00;97478.44;5064103;28;20044;-70
2023/11/03 05:38:46;;;;;;;4.07;1.70;;;;;;;4.61;100.00;97473.88;5092412;28;20047;-70
2023/11/03 05:41:30;;;;;;;7.15;2.17;;;;;;;4.70;100.00;97471.91;5070741;28;20062;-70
2023/11/03 05:44:14;;;;;;;3.95;1.45;;;;;;;4.72;100.00;97468.03;5064952;28;20479;-70
2023/11/03 05:46:59;;;;;;;9.90;2.20;;;;;;;4.75;100.00;97479.16;5064368;28;20086;-70
2023/11/03 05:49:44;;;;;;;5.22;1.88;;;;;;;4.76;100.00;97469.78;5058162;28;20558;-70
2023/11/03 05:52:28;;;;;;;5.45;1.98;;;;;;;4.81;100.00;97472.34;5050527;28;20054;-70
2023/11/03 05:55:12;;;;;;;4.15;1.52;;;;;;;4.85;100.00;97470.56;5068302;28;20036;-70
2023/11/03 05:57:56;;;;;;;6.18;1.65;;;;;;;4.87;100.00;97464.72;5065443;28;20066;-70
2023/11/03 06:00:40;;;;;;;4.90;1.80;;;;;;;4.94;100.00;97473.25;5082871;28;20097;-70
2023/11/03 06:03:24;;;;;;;4.93;2.00;;;;;;;5.00;100.00;97476.63;5079363;28;20040;-70
2023/11/03 06:06:09;;;;;;;5.72;1.98;;;;;;;5.03;100.00;97478.72;5098263;28;20039;-70
2023/11/03 06:08:53;;;;;;;6.78;1.80;;;;;;;5.06;100.00;97480.81;5050507;28;20043;-70
2023/11/03 06:11:37;;;;;;;7.28;2.38;;;;;;;5.08;100.00;97476.59;5065566;28;20192;-70
2023/11/03 06:14:22;;;;;;;8.00;1.70;;;;;;;5.11;100.00;97486.91;5064175;28;20047;-70
2023/11/03 06:17:06;;;;;;;7.90;2.13;;;;;;;5.15;100.00;97485.13;5079740;28;20097;-70
2023/11/03 06:19:50;;;;;;;7.95;2.40;;;;;;;5.19;100.00;97495.47;5064880;28;20044;-70
2023/11/03 06:22:34;;;;;;;6.50;1.70;;;;;;;5.20;100.00;97497.88;5080876;28;20086;-70
2023/11/03 06:25:18;;;;;;;5.65;2.05;;;;;;;5.24;100.00;97507.09;5064125;28;20042;-70
2023/11/03 06:28:02;;;;;;;6.53;2.10;;;;;;;5.26;100.00;97509.50;5050951;28;20040;-70
2023/11/03 06:30:47;;;;;;;6.15;2.22;;;;;;;5.29;100.00;97517.09;5066890;28;20146;-70
2023/11/03 06:33:31;;;;;;;2.67;1.80;;;;;;;5.34;100.00;97522.41;5085138;28;20090;-70
2023/11/03 06:36:17;;;;;;;4.93;2.10;;;;;;;5.34;100.00;97519.66;5066600;28;20043;-70
2023/11/03 06:39:03;;;;;;;4.28;1.90;;;;;;;5.36;100.00;97531.16;5077106;28;20048;-70
2023/11/03 06:41:47;;;;;;;5.05;2.03;;;;;;;5.40;100.00;97532.06;5065042;28;20097;-70
2023/11/03 06:44:32;;;;;;;5.00;1.83;;;;;;;5.43;100.00;97531.41;5087625;28;20043;-70
2023/11/03 06:47:17;;;;;;;6.13;2.20;;;;;;;5.46;100.00;97538.19;5063499;28;20075;-70
2023/11/03 06:50:01;;;;;;;5.72;2.10;;;;;;;5.46;100.00;97533.53;5062566;28;20105;-70
2023/11/03 06:52:48;;;;;;;2.75;1.70;;;;;;;5.49;100.00;97532.84;5077766;28;20078;-70
2023/11/03 06:55:32;;;;;;;5.97;2.20;;;;;;;5.49;100.00;97548.53;5066134;28;20110;-70
2023/11/03 06:58:16;;;;;;;5.30;2.55;;;;;;;5.55;100.00;97544.47;5067408;28;20120;-70
2023/11/03 07:01:00;;;;;;;7.00;2.58;;;;;;;5.54;100.00;97545.59;5070743;28;20039;-70
2023/11/03 07:03:45;;;;;;;7.93;2.30;;;;;;;5.57;100.00;97554.03;5068593;28;20093;-70
2023/11/03 07:06:29;;;;;;;5.25;2.17;;;;;;;5.58;100.00;97561.13;5080112;28;20115;-70
2023/11/03 07:09:13;;;;;;;6.18;2.63;;;;;;;5.60;100.00;97572.63;5077308;28;20522;-70
2023/11/03 07:11:58;;;;;;;4.35;2.70;;;;;;;5.64;100.00;97570.00;5078071;28;20047;-70
2023/11/03 07:14:42;;;;;;;5.18;2.50;;;;;;;5.65;100.00;97568.84;5063026;28;20044;-70
2023/11/03 07:17:26;;;;;;;5.53;2.40;;;;;;;5.68;100.00;97575.63;5090550;28;20055;-70
2023/11/03 07:20:10;;;;;;;3.95;2.60;;;;;;;5.70;100.00;97576.13;5088119;28;20098;-70
2023/11/03 07:22:54;;;;;;;5.47;2.63;;;;;;;5.72;100.00;97573.84;5080967;28;20630;-70
2023/11/03 07:25:39;;;;;;;3.67;2.30;;;;;;;5.73;100.00;97578.19;5078262;28;20043;-70
2023/11/03 07:28:23;;;;;;;7.28;2.75;;;;;;;5.77;100.00;97588.22;5062263;28;20090;-70
2023/11/03 07:31:10;;;;;;;4.55;2.22;;;;;;;5.82;100.00;97587.22;5062548;28;20040;-70
2023/11/03 07:33:55;;;;;;;4.03;2.45;;;;;;;5.85;100.00;97594.81;5065923;28;20110;-70
2023/11/03 07:36:39;;;;;;;2.90;2.05;;;;;;;5.85;100.00;97592.06;5070512;28;20069;-70
2023/11/03 07:39:34;;;;;;;5.15;2.28;;;;;;;5.88;100.00;97599.66;5062651;28;20046;-68
2023/11/03 07:42:18;;;;;;;5.70;2.30;;;;;;;5.98;100.00;97604.78;5077564;28;20039;-69
2023/11/03 07:45:02;;;;;;;4.25;1.95;;;;;;;6.03;100.00;97598.28;5072674;28;20040;-69
2023/11/03 07:47:47;;;;;;;5.68;2.50;;;;;;;6.13;100.00;97605.34;5071418;28;20043;-70
2023/11/03 07:50:31;;;;;;;4.88;2.05;;;;;;;6.17;100.00;97609.06;5062547;28;20043;-69
2023/11/03 07:53:16;;;;;;;8.32;1.95;;;;;;;6.24;100.00;97620.31;5062156;28;20059;-69
2023/11/03 07:56:00;;;;;;;4.50;2.20;;;;;;;6.31;100.00;97626.13;5068941;28;20440;-69
2023/11/03 07:58:45;;;;;;;4.60;2.13;;;;;;;6.35;100.00;97621.56;5062208;28;20119;-69
2023/11/03 08:01:29;;;;;;;4.32;2.17;;;;;;;6.42;100.00;97629.28;5071770;28;20046;-69
2023/11/03 08:04:16;;;;;;;6.43;2.10;;;;;;;6.46;100.00;97638.47;5092731;28;20043;-69
2023/11/03 08:07:00;;;;;;;6.50;2.10;;;;;;;6.50;100.00;97636.69;5062816;28;20051;-69
2023/11/03 08:09:44;;;;;;;7.32;1.98;;;;;;;6.56;100.00;97645.56;5047822;28;20094;-69
2023/11/03 08:12:28;;;;;;;4.45;1.90;;;;;;;6.58;100.00;97646.03;5090691;28;20050;-71
2023/11/03 08:15:12;;;;;;;5.88;1.85;;;;;;;6.65;100.00;97646.28;5048044;28;20403;-69
2023/11/03 08:17:56;;;;;;;5.22;2.22;;;;;;;6.72;100.00;97652.88;5083883;28;20074;-72
2023/11/03 08:20:41;;;;;;;3.25;1.85;;;;;;;6.80;100.00;97642.06;5076202;28;20131;-69
2023/11/03 08:23:26;;;;;;;3.65;1.90;;;;;;;6.88;100.00;97642.03;5064193;28;20048;-69
2023/11/03 08:26:11;;;;;;;4.60;2.00;;;;;;;6.94;100.00;97643.41;5080637;28;20043;-69
2023/11/03 08:28:55;;;;;;;4.68;1.83;;;;;;;7.02;100.00;97641.72;5081461;28;20127;-69
2023/11/03 08:31:40;;;;;;;2.88;1.60;;;;;;;7.11;100.00;97652.66;5062058;28;20047;-69
2023/11/03 08:34:24;;;;;;;5.47;1.85;;;;;;;7.18;100.00;97657.63;5084164;28;20404;-70
2023/11/03 08:37:08;;;;;;;4.85;2.00;;;;;;;7.20;100.00;97660.84;5076455;28;20047;-69
2023/11/03 08:39:52;;;;;;;2.95;1.65;;;;;;;7.24;100.00;97661.75;5078989;28;20032;-69
2023/11/03 08:42:36;;;;;;;4.95;2.00;;;;;;;7.26;100.00;97670.53;5067545;28;20036;-69
2023/11/03 08:45:20;;;;;;;4.38;1.40;;;;;;;7.27;100.00;97675.72;5079802;28;20067;-69
2023/11/03 08:48:05;;;;;;;4.45;1.52;;;;;;;7.28;100.00;97677.31;5065690;28;20067;-69
2023/11/03 08:50:49;;;;;;;5.65;1.80;;;;;;;7.29;100.00;97675.34;5065736;28;20068;-69
2023/11/03 08:53:33;;;;;;;3.90;1.35;;;;;;;7.28;100.00;97685.59;5065872;28;20044;-69
2023/11/03 08:56:20;;;;;;;4.50;1.73;;;;;;;7.30;100.00;97683.31;5060666;28;20142;-69
2023/11/03 08:59:04;;;;;;;3.95;1.30;;;;;;;7.35;100.00;97679.50;5089408;28;20708;-69
2023/11/03 09:01:53;;;;;;;2.72;1.35;;;;;;;7.40;100.00;97684.81;5079176;28;20043;-69
2023/11/03 09:04:39;;;;;;;2.67;1.20;;;;;;;7.49;100.00;97687.47;5096259;28;20039;-69
2023/11/03 09:07:24;;;;;;;4.03;1.33;;;;;;;7.57;100.00;97692.09;5061118;28;20055;-69
2023/11/03 09:10:09;;;;;;;4.95;1.85;;;;;;;7.66;100.00;97684.53;5079201;28;20166;-69
2023/11/03 09:12:53;;;;;;;3.85;1.33;;;;;;;7.81;100.00;97685.78;5067005;28;20117;-69
2023/11/03 09:15:38;;;;;;;2.53;1.30;;;;;;;7.96;100.00;97692.59;5079322;28;20047;-69
2023/11/03 09:18:23;;;;;;;5.40;1.10;;;;;;;8.12;100.00;97699.03;5079530;28;20498;-69
2023/11/03 09:21:09;;;;;;;3.65;1.33;;;;;;;8.23;100.00;97697.41;5065397;28;20059;-69
2023/11/03 09:23:53;;;;;;;3.30;1.20;;;;;;;8.38;100.00;97708.91;5059885;28;20036;-69
2023/11/03 09:26:38;;;;;;;4.82;1.42;;;;;;;8.53;100.00;97705.47;5075088;28;20511;-69
2023/11/03 09:29:22;;;;;;;3.20;1.08;;;;;;;8.68;100.00;97696.44;5064919;28;20166;-69
2023/11/03 09:32:07;;;;;;;2.72;0.95;;;;;;;8.82;100.00;97703.56;5064456;28;20040;-69
2023/11/03 09:34:51;;;;;;;3.88;1.30;;;;;;;8.98;100.00;97707.19;5070047;28;20040;-69
2023/11/03 09:37:35;;;;;;;2.33;1.20;;;;;;;9.13;100.00;97714.72;5070970;28;20086;-69
2023/11/03 09:40:20;;;;;;;3.67;1.30;;;;;;;9.27;100.00;97716.28;5067632;28;20097;-69
2023/11/03 09:43:05;;;;;;;3.53;1.17;;;;;;;9.44;100.00;97721.50;5086346;28;20112;-69
2023/11/03 09:45:49;;;;;;;3.45;1.45;;;;;;;9.60;100.00;97722.34;5053198;28;20036;-69
2023/11/03 09:48:34;;;;;;;2.90;1.20;;;;;;;9.78;100.00;97730.34;5078528;28;20089;-69
2023/11/03 09:51:20;;;;;;;5.03;1.33;;;;;;;9.89;100.00;97730.59;5078321;28;20443;-69
2023/11/03 09:54:04;;;;;;;3.78;1.42;;;;;;;10.03;100.00;97728.19;5089280;28;20452;-69
2023/11/03 09:56:49;;;;;;;4.13;1.27;;;;;;;10.20;100.00;97735.34;5064048;28;20047;-69
2023/11/03 09:59:34;;;;;;;5.97;1.40;;;;;;;10.36;100.00;97733.38;5060613;28;20396;-69
2023/11/03 10:02:19;;;;;;;3.17;1.27;;;;;;;10.47;100.00;97734.44;5077935;28;20110;-69
2023/11/03 10:05:07;;;;;;;4.45;1.10;;;;;;;10.64;100.00;97741.56;5095899;28;20035;-69
2023/11/03 10:08:02;;;;;;;2.80;1.10;;;;;;;10.73;100.00;97738.59;5083790;28;20036;-69
2023/11/03 10:10:47;;;;;;;1.75;1.08;;;;;;;10.84;100.00;97739.63;5064930;28;20047;-69
2023/11/03 10:13:36;;;;;;;2.67;1.08;;;;;;;10.99;100.00;97748.28;5064276;28;20071;-69
2023/11/03 10:16:21;;;;;;;6.25;1.55;;;;;;;11.10;100.00;97747.31;5080753;28;20077;-69
2023/11/03 10:19:05;;;;;;;7.68;1.58;;;;;;;11.24;100.00;97744.03;5067943;28;20071;-70
2023/11/03 10:21:49;;;;;;;5.70;1.42;;;;;;;11.35;100.00;97750.59;5074055;28;20499;-70
2023/11/03 10:24:33;;;;;;;3.85;1.25;;;;;;;11.45;100.00;97748.41;5075835;28;20447;-70
2023/11/03 10:27:19;;;;;;;4.38;1.20;;;;;;;11.55;100.00;97747.81;5064050;28;20503;-70
2023/11/03 10:30:07;;;;;;;5.70;1.63;;;;;;;11.67;100.00;97746.84;5078948;28;20043;-70
2023/11/03 10:32:52;;;;;;;4.45;1.85;;;;;;;11.78;100.00;97743.13;5071898;28;20054;-70
2023/11/03 10:35:37;;;;;;;5.90;1.67;;;;;;;11.87;100.00;97742.91;5081353;28;20388;-70
2023/11/03 10:38:21;;;;;;;4.40;1.80;;;;;;;11.96;100.00;97751.00;5050587;28;20427;-70
2023/11/03 10:41:06;;;;;;;4.47;1.30;;;;;;;12.05;100.00;97749.56;5063709;28;20082;-70
2023/11/03 10:43:58;;;;;;;4.10;1.30;;;;;;;12.12;100.00;97746.13;5063527;28;20040;-70
2023/11/03 10:46:50;;;;;;;2.42;1.30;;;;;;;12.19;100.00;97754.56;5069174;28;20542;-70
2023/11/03 10:49:40;;;;;;;6.15;1.50;;;;;;;12.26;100.00;97753.91;5077650;28;20055;-70
2023/11/03 10:52:28;;;;;;;6.78;1.40;;;;;;;12.32;100.00;97754.38;5063901;28;20063;-70
2023/11/03 10:55:19;;;;;;;6.85;1.63;;;;;;;12.37;100.00;97742.91;5067332;28;20141;-70
2023/11/03 10:58:03;;;;;;;3.10;1.60;;;;;;;12.39;100.00;97746.13;5082915;28;20048;-70
2023/11/03 11:01:08;;;;;;;5.35;1.67;;;;;;;12.42;100.00;97748.16;5068440;28;20089;-70
2023/11/03 11:04:18;;;;;;;4.60;1.55;;;;;;;12.45;100.00;97736.28;5082265;28;20189;-70
2023/11/03 11:07:05;;;;;;;3.63;1.40;;;;;;;12.49;100.00;97728.81;5065238;28;20127;-70
2023/11/03 11:09:50;;;;;;;4.38;1.58;;;;;;;12.55;100.00;97726.50;5077409;28;20034;-70
2023/11/03 11:13:00;;;;;;;3.50;1.50;;;;;;;12.59;100.00;97736.53;5078075;28;20115;-70
2023/11/03 11:15:57;;;;;;;4.15;1.30;;;;;;;12.63;100.00;97734.59;5076994;28;20055;-70
2023/11/03 11:18:43;;;;;;;5.97;1.77;;;;;;;12.74;100.00;97741.13;5077383;28;20040;-70
2023/11/03 11:21:29;;;;;;;1.98;1.10;;;;;;;12.75;100.00;97747.47;5063026;28;20495;-70
2023/11/03 11:24:14;;;;;;;8.05;2.08;;;;;;;12.79;100.00;97741.94;5062605;28;20399;-70
2023/11/03 11:27:21;;;;;;;5.80;1.50;;;;;;;12.78;100.00;97751.50;5070336;28;20075;-70
2023/11/03 11:30:14;;;;;;;4.07;1.27;;;;;;;12.85;100.00;97751.63;5076946;28;20040;-70
2023/11/03 11:32:58;;;;;;;3.88;1.48;;;;;;;12.84;100.00;97742.47;5063059;28;20438;-70
2023/11/03 11:35:42;;;;;;;3.33;1.20;;;;;;;12.86;100.00;97747.63;5077829;28;20068;-70
2023/11/03 11:38:26;;;;;;;3.28;1.25;;;;;;;12.85;100.00;97751.63;5077265;28;20051;-70
2023/11/03 11:41:10;;;;;;;4.32;1.20;;;;;;;12.89;100.00;97747.69;5080747;28;20047;-70
2023/11/03 11:43:55;;;;;;;2.83;1.20;;;;;;;12.88;100.00;97750.84;5067884;28;20391;-70
2023/11/03 11:46:39;;;;;;;2.38;1.00;;;;;;;12.96;100.00;97752.56;5064316;28;20039;-71
2023/11/03 11:49:26;;;;;;;2.80;0.95;;;;;;;12.94;100.00;97749.34;5076439;28;20075;-71
2023/11/03 11:52:10;;;;;;;3.83;1.17;;;;;;;13.42;100.00;97749.59;5062537;28;20066;-71
2023/11/03 11:54:58;;;;;;;9.02;1.20;;;;;;;14.34;100.00;97745.31;5079793;28;20093;-71
2023/11/03 11:57:43;;;;;;;3.90;1.30;;;;;;;14.85;100.00;97736.13;5062399;28;20044;-71
2023/11/03 12:00:27;;;;;;;4.13;0.90;;;;;;;15.17;100.00;97747.50;5064991;28;20043;-71
2023/11/03 12:03:11;;;;;;;3.65;0.95;;;;;;;15.01;100.00;97749.81;5091207;28;20043;-71
2023/11/03 12:05:55;;;;;;;4.88;1.42;;;;;;;14.24;100.00;97752.44;5096726;28;20089;-71
2023/11/03 12:08:40;;;;;;;4.45;1.30;;;;;;;14.18;100.00;97751.16;5063919;28;20051;-71
2023/11/03 12:11:25;;;;;;;4.35;1.20;;;;;;;14.03;100.00;97758.63;5063864;28;20078;-71
2023/11/03 12:14:09;;;;;;;6.05;1.05;;;;;;;13.88;100.00;97752.09;5075941;28;20067;-71
2023/11/03 12:16:53;;;;;;;3.85;1.13;;;;;;;13.78;100.00;97761.94;5047899;28;20092;-71
2023/11/03 12:19:37;;;;;;;4.40;1.05;;;;;;;13.74;100.00;97751.94;5073067;28;20098;-71
2023/11/03 12:22:26;;;;;;;3.97;1.35;;;;;;;13.74;100.00;97760.31;5081764;28;20511;-71
2023/11/03 12:25:10;;;;;;;7.03;1.30;;;;;;;13.78;100.00;97767.53;5062297;28;20082;-71
2023/11/03 12:27:54;;;;;;;5.70;1.17;;;;;;;13.82;100.00;97779.53;5061997;28;20059;-71
2023/11/03 12:30:51;;;;;;;7.90;1.90;;;;;;;13.84;100.00;97779.94;5061230;28;20035;-71
2023/11/03 12:33:36;;;;;;;7.47;1.23;;;;;;;13.86;100.00;97787.94;5077012;28;20031;-71
2023/11/03 12:36:20;;;;;;;7.05;1.20;;;;;;;13.92;100.00;97780.81;5076060;28;20039;-71
2023/11/03 12:39:05;;;;;;;6.30;1.00;;;;;;;13.95;100.00;97790.41;5074426;28;20035;-71
2023/11/03 12:42:07;;;;;;;3.30;0.93;;;;;;;13.98;100.00;97795.22;5061414;28;20079;-71
2023/11/03 12:44:52;;;;;;;7.88;1.40;;;;;;;13.98;100.00;97786.84;5075838;28;20119;-71
2023/11/03 12:47:49;;;;;;;4.88;0.82;;;;;;;14.00;100.00;97782.50;5076971;28;20047;-71
2023/11/03 12:50:34;;;;;;;6.88;1.63;;;;;;;14.04;100.00;97793.69;5062897;28;20067;-71
2023/11/03 12:53:18;;;;;;;6.32;1.48;;;;;;;14.04;100.00;97800.09;5076296;28;20380;-71
2023/11/03 12:56:04;;;;;;;6.22;1.58;;;;;;;14.07;100.00;97799.34;5061782;28;20039;-71